sensor_id;sensor_type;location;lat;lon;timestamp;temperature;humidity
8475;DHT22;4274;52.012;8.448;2023-03-21T00:02:16;8.10;99.90
8475;DHT22;4274;52.012;8.448;2023-03-21T00:04:42;8.20;99.90
8475;DHT22;4274;52.012;8.448;2023-03-21T00:07:07;8.20;99.90
8475;DHT22;4274;52.012;8.448;2023-03-21T00:09:33;8.20;99.90
8475;DHT22;4274;52.012;8.448;2023-03-21T00:11:58;8.10;99.90
8475;DHT22;4274;52.012;8.448;2023-03-21T00:14:26;8.10;99.90
8475;DHT22;4274;52.012;8.448;2023-03-21T00:16:55;8.10;99.90
8475;DHT22;4274;52.012;8.448;2023-03-21T00:19:21;8.10;99.90
8475;DHT22;4274;52.012;8.448;2023-03-21T00:21:49;8.20;99.90
8475;DHT22;4274;52.012;8.448;2023-03-21T00:24:16;8.20;99.90
8475;DHT22;4274;52.012;8.448;2023-03-21T00:26:42;8.10;99.90
8475;DHT22;4274;52.012;8.448;2023-03-21T00:29:08;8.10;99.90
8475;DHT22;4274;52.012;8.448;2023-03-21T00:31:34;8.10;99.90
8475;DHT22;4274;52.012;8.448;2023-03-21T00:33:59;8.20;99.90
8475;DHT22;4274;52.012;8.448;2023-03-21T00:36:26;8.10;99.90
8475;DHT22;4274;52.012;8.448;2023-03-21T00:38:52;8.20;99.90
8475;DHT22;4274;52.012;8.448;2023-03-21T00:41:17;8.20;99.90
8475;DHT22;4274;52.012;8.448;2023-03-21T00:43:43;8.30;99.90
8475;DHT22;4274;52.012;8.448;2023-03-21T00:46:09;8.30;99.90
8475;DHT22;4274;52.012;8.448;2023-03-21T00:48:34;8.30;99.90
8475;DHT22;4274;52.012;8.448;2023-03-21T00:51:00;8.30;99.90
8475;DHT22;4274;52.012;8.448;2023-03-21T00:53:27;8.30;99.90
8475;DHT22;4274;52.012;8.448;2023-03-21T00:55:52;8.20;99.90
8475;DHT22;4274;52.012;8.448;2023-03-21T00:58:18;8.20;99.90
8475;DHT22;4274;52.012;8.448;2023-03-21T01:00:44;8.10;99.90
8475;DHT22;4274;52.012;8.448;2023-03-21T01:03:14;8.10;99.90
8475;DHT22;4274;52.012;8.448;2023-03-21T01:05:45;8.00;99.90
8475;DHT22;4274;52.012;8.448;2023-03-21T01:08:36;8.00;99.90
8475;DHT22;4274;52.012;8.448;2023-03-21T01:11:06;8.00;99.90
8475;DHT22;4274;52.012;8.448;2023-03-21T01:13:32;8.00;99.90
8475;DHT22;4274;52.012;8.448;2023-03-21T01:15:59;8.00;99.90
8475;DHT22;4274;52.012;8.448;2023-03-21T01:18:27;8.00;99.90
8475;DHT22;4274;52.012;8.448;2023-03-21T01:20:55;8.00;99.90
8475;DHT22;4274;52.012;8.448;2023-03-21T01:23:25;8.00;99.90
8475;DHT22;4274;52.012;8.448;2023-03-21T01:25:55;8.00;99.90
8475;DHT22;4274;52.012;8.448;2023-03-21T01:28:23;8.00;99.90
8475;DHT22;4274;52.012;8.448;2023-03-21T01:30:50;8.10;99.90
8475;DHT22;4274;52.012;8.448;2023-03-21T01:33:18;8.10;99.90
8475;DHT22;4274;52.012;8.448;2023-03-21T01:35:43;8.10;99.90
8475;DHT22;4274;52.012;8.448;2023-03-21T01:38:09;8.10;99.90
8475;DHT22;4274;52.012;8.448;2023-03-21T01:40:35;8.20;99.90
8475;DHT22;4274;52.012;8.448;2023-03-21T01:43:02;8.20;99.90
8475;DHT22;4274;52.012;8.448;2023-03-21T01:48:31;8.30;99.90
8475;DHT22;4274;52.012;8.448;2023-03-21T01:50:59;8.20;99.90
8475;DHT22;4274;52.012;8.448;2023-03-21T01:53:27;8.30;99.90
8475;DHT22;4274;52.012;8.448;2023-03-21T01:55:59;8.30;99.90
8475;DHT22;4274;52.012;8.448;2023-03-21T01:58:26;8.20;99.90
8475;DHT22;4274;52.012;8.448;2023-03-21T02:00:52;8.20;99.90
8475;DHT22;4274;52.012;8.448;2023-03-21T02:03:19;8.20;99.90
8475;DHT22;4274;52.012;8.448;2023-03-21T02:05:52;8.20;99.90
8475;DHT22;4274;52.012;8.448;2023-03-21T02:08:21;8.20;99.90
8475;DHT22;4274;52.012;8.448;2023-03-21T02:10:48;8.10;99.90
8475;DHT22;4274;52.012;8.448;2023-03-21T02:13:14;8.10;99.90
8475;DHT22;4274;52.012;8.448;2023-03-21T02:15:46;8.10;99.90
8475;DHT22;4274;52.012;8.448;2023-03-21T02:18:24;8.10;99.90
8475;DHT22;4274;52.012;8.448;2023-03-21T02:31:50;8.10;99.90
8475;DHT22;4274;52.012;8.448;2023-03-21T02:41:57;8.20;99.90
8475;DHT22;4274;52.012;8.448;2023-03-21T02:44:45;8.20;99.90
8475;DHT22;4274;52.012;8.448;2023-03-21T02:47:13;8.20;99.90
8475;DHT22;4274;52.012;8.448;2023-03-21T02:49:51;8.20;99.90
8475;DHT22;4274;52.012;8.448;2023-03-21T02:52:22;8.20;99.90
8475;DHT22;4274;52.012;8.448;2023-03-21T02:54:49;8.20;99.90
8475;DHT22;4274;52.012;8.448;2023-03-21T02:57:17;8.20;99.90
8475;DHT22;4274;52.012;8.448;2023-03-21T02:59:45;8.20;99.90
8475;DHT22;4274;52.012;8.448;2023-03-21T03:02:14;8.20;99.90
8475;DHT22;4274;52.012;8.448;2023-03-21T03:04:39;8.20;99.90
8475;DHT22;4274;52.012;8.448;2023-03-21T03:07:47;8.30;99.90
8475;DHT22;4274;52.012;8.448;2023-03-21T03:15:59;8.30;99.90
8475;DHT22;4274;52.012;8.448;2023-03-21T03:23:52;8.30;99.90
8475;DHT22;4274;52.012;8.448;2023-03-21T03:26:25;8.20;99.90
8475;DHT22;4274;52.012;8.448;2023-03-21T03:28:57;8.20;99.90
8475;DHT22;4274;52.012;8.448;2023-03-21T03:31:28;8.20;99.90
8475;DHT22;4274;52.012;8.448;2023-03-21T03:33:59;8.20;99.90
8475;DHT22;4274;52.012;8.448;2023-03-21T03:36:30;8.20;99.90
8475;DHT22;4274;52.012;8.448;2023-03-21T03:39:00;8.30;99.90
8475;DHT22;4274;52.012;8.448;2023-03-21T03:41:28;8.30;99.90
8475;DHT22;4274;52.012;8.448;2023-03-21T03:43:56;8.30;99.90
8475;DHT22;4274;52.012;8.448;2023-03-21T03:46:27;8.30;99.90
8475;DHT22;4274;52.012;8.448;2023-03-21T03:48:57;8.30;99.90
8475;DHT22;4274;52.012;8.448;2023-03-21T03:51:26;8.40;99.90
8475;DHT22;4274;52.012;8.448;2023-03-21T03:53:57;8.40;99.90
8475;DHT22;4274;52.012;8.448;2023-03-21T03:56:25;8.40;99.90
8475;DHT22;4274;52.012;8.448;2023-03-21T03:58:51;8.50;99.90
8475;DHT22;4274;52.012;8.448;2023-03-21T04:01:17;8.50;99.90
8475;DHT22;4274;52.012;8.448;2023-03-21T04:03:46;8.50;99.90
8475;DHT22;4274;52.012;8.448;2023-03-21T04:06:12;8.50;99.90
8475;DHT22;4274;52.012;8.448;2023-03-21T04:08:38;8.50;99.90
8475;DHT22;4274;52.012;8.448;2023-03-21T04:11:04;8.50;99.90
8475;DHT22;4274;52.012;8.448;2023-03-21T04:13:30;8.50;99.90
8475;DHT22;4274;52.012;8.448;2023-03-21T04:15:55;8.50;99.90
8475;DHT22;4274;52.012;8.448;2023-03-21T04:18:21;8.60;99.90
8475;DHT22;4274;52.012;8.448;2023-03-21T04:20:48;8.60;99.90
8475;DHT22;4274;52.012;8.448;2023-03-21T04:23:16;8.50;99.90
8475;DHT22;4274;52.012;8.448;2023-03-21T04:25:44;8.60;99.90
8475;DHT22;4274;52.012;8.448;2023-03-21T04:28:10;8.50;99.90
8475;DHT22;4274;52.012;8.448;2023-03-21T04:30:36;8.50;99.90
8475;DHT22;4274;52.012;8.448;2023-03-21T04:33:02;8.50;99.90
8475;DHT22;4274;52.012;8.448;2023-03-21T04:35:28;8.50;99.90
8475;DHT22;4274;52.012;8.448;2023-03-21T04:37:54;8.50;99.90
8475;DHT22;4274;52.012;8.448;2023-03-21T04:40:20;8.50;99.90
8475;DHT22;4274;52.012;8.448;2023-03-21T04:42:47;8.50;99.90
8475;DHT22;4274;52.012;8.448;2023-03-21T04:45:13;8.50;99.90
8475;DHT22;4274;52.012;8.448;2023-03-21T04:47:40;8.50;99.90
8475;DHT22;4274;52.012;8.448;2023-03-21T04:50:07;8.50;99.90
8475;DHT22;4274;52.012;8.448;2023-03-21T04:52:33;8.60;99.90
8475;DHT22;4274;52.012;8.448;2023-03-21T04:54:58;8.60;99.90
8475;DHT22;4274;52.012;8.448;2023-03-21T04:57:25;8.60;99.90
8475;DHT22;4274;52.012;8.448;2023-03-21T04:59:51;8.60;99.90
8475;DHT22;4274;52.012;8.448;2023-03-21T05:02:16;8.60;99.90
8475;DHT22;4274;52.012;8.448;2023-03-21T05:04:42;8.60;99.90
8475;DHT22;4274;52.012;8.448;2023-03-21T05:07:08;8.60;99.90
8475;DHT22;4274;52.012;8.448;2023-03-21T05:09:33;8.60;99.90
8475;DHT22;4274;52.012;8.448;2023-03-21T05:11:59;8.60;99.90
8475;DHT22;4274;52.012;8.448;2023-03-21T05:14:26;8.50;99.90
8475;DHT22;4274;52.012;8.448;2023-03-21T05:16:51;8.60;99.90
8475;DHT22;4274;52.012;8.448;2023-03-21T05:19:19;8.50;99.90
8475;DHT22;4274;52.012;8.448;2023-03-21T05:21:47;8.50;99.90
8475;DHT22;4274;52.012;8.448;2023-03-21T05:24:18;8.50;99.90
8475;DHT22;4274;52.012;8.448;2023-03-21T05:26:45;8.50;99.90
8475;DHT22;4274;52.012;8.448;2023-03-21T05:29:20;8.50;99.90
8475;DHT22;4274;52.012;8.448;2023-03-21T05:31:46;8.50;99.90
8475;DHT22;4274;52.012;8.448;2023-03-21T05:34:14;8.50;99.90
8475;DHT22;4274;52.012;8.448;2023-03-21T05:36:40;8.60;99.90
8475;DHT22;4274;52.012;8.448;2023-03-21T05:39:06;8.60;99.90
8475;DHT22;4274;52.012;8.448;2023-03-21T05:41:32;8.60;99.90
8475;DHT22;4274;52.012;8.448;2023-03-21T05:43:57;8.60;99.90
8475;DHT22;4274;52.012;8.448;2023-03-21T05:46:23;8.60;99.90
8475;DHT22;4274;52.012;8.448;2023-03-21T05:48:48;8.60;99.90
8475;DHT22;4274;52.012;8.448;2023-03-21T05:51:14;8.60;99.90
8475;DHT22;4274;52.012;8.448;2023-03-21T05:53:40;8.60;99.90
8475;DHT22;4274;52.012;8.448;2023-03-21T05:56:06;8.70;99.90
8475;DHT22;4274;52.012;8.448;2023-03-21T05:58:31;8.60;99.90
8475;DHT22;4274;52.012;8.448;2023-03-21T06:00:57;8.70;99.90
8475;DHT22;4274;52.012;8.448;2023-03-21T06:03:23;8.70;99.90
8475;DHT22;4274;52.012;8.448;2023-03-21T06:05:48;8.80;99.90
8475;DHT22;4274;52.012;8.448;2023-03-21T06:08:14;8.80;99.90
8475;DHT22;4274;52.012;8.448;2023-03-21T06:10:39;8.80;99.90
8475;DHT22;4274;52.012;8.448;2023-03-21T06:13:05;8.90;99.90
8475;DHT22;4274;52.012;8.448;2023-03-21T06:15:30;8.90;99.90
8475;DHT22;4274;52.012;8.448;2023-03-21T06:17:56;8.90;99.90
8475;DHT22;4274;52.012;8.448;2023-03-21T06:20:22;8.90;99.90
8475;DHT22;4274;52.012;8.448;2023-03-21T06:22:47;9.00;99.90
8475;DHT22;4274;52.012;8.448;2023-03-21T06:25:13;9.00;99.90
8475;DHT22;4274;52.012;8.448;2023-03-21T06:27:39;9.00;99.90
8475;DHT22;4274;52.012;8.448;2023-03-21T06:30:05;8.90;99.90
8475;DHT22;4274;52.012;8.448;2023-03-21T06:32:31;9.00;99.90
8475;DHT22;4274;52.012;8.448;2023-03-21T06:34:57;9.00;99.90
8475;DHT22;4274;52.012;8.448;2023-03-21T06:37:22;9.00;99.90
8475;DHT22;4274;52.012;8.448;2023-03-21T06:39:48;9.10;99.90
8475;DHT22;4274;52.012;8.448;2023-03-21T06:42:14;9.10;99.90
8475;DHT22;4274;52.012;8.448;2023-03-21T06:44:40;9.10;99.90
8475;DHT22;4274;52.012;8.448;2023-03-21T06:47:06;9.20;99.90
8475;DHT22;4274;52.012;8.448;2023-03-21T06:49:32;9.20;99.90
8475;DHT22;4274;52.012;8.448;2023-03-21T06:51:57;9.30;99.90
8475;DHT22;4274;52.012;8.448;2023-03-21T06:54:23;9.30;99.90
8475;DHT22;4274;52.012;8.448;2023-03-21T06:56:49;9.30;99.90
8475;DHT22;4274;52.012;8.448;2023-03-21T06:59:15;9.40;99.90
8475;DHT22;4274;52.012;8.448;2023-03-21T07:01:40;9.40;99.90
8475;DHT22;4274;52.012;8.448;2023-03-21T07:04:07;9.50;99.90
8475;DHT22;4274;52.012;8.448;2023-03-21T07:06:33;9.50;99.90
8475;DHT22;4274;52.012;8.448;2023-03-21T07:08:59;9.60;99.90
8475;DHT22;4274;52.012;8.448;2023-03-21T07:11:25;9.60;99.90
8475;DHT22;4274;52.012;8.448;2023-03-21T07:13:51;9.60;99.90
8475;DHT22;4274;52.012;8.448;2023-03-21T07:16:17;9.70;99.90
8475;DHT22;4274;52.012;8.448;2023-03-21T07:18:44;9.70;99.90
8475;DHT22;4274;52.012;8.448;2023-03-21T07:21:10;9.70;99.90
8475;DHT22;4274;52.012;8.448;2023-03-21T07:23:35;9.70;99.90
8475;DHT22;4274;52.012;8.448;2023-03-21T07:26:03;9.70;99.90
8475;DHT22;4274;52.012;8.448;2023-03-21T07:28:29;9.70;99.90
8475;DHT22;4274;52.012;8.448;2023-03-21T07:30:58;9.80;99.90
8475;DHT22;4274;52.012;8.448;2023-03-21T07:33:24;9.80;99.90
8475;DHT22;4274;52.012;8.448;2023-03-21T07:35:51;9.80;99.90
8475;DHT22;4274;52.012;8.448;2023-03-21T07:38:17;9.90;99.90
8475;DHT22;4274;52.012;8.448;2023-03-21T07:40:44;9.90;99.90
8475;DHT22;4274;52.012;8.448;2023-03-21T07:43:10;9.90;99.90
8475;DHT22;4274;52.012;8.448;2023-03-21T07:45:36;9.90;99.90
8475;DHT22;4274;52.012;8.448;2023-03-21T07:48:02;9.80;99.90
8475;DHT22;4274;52.012;8.448;2023-03-21T07:50:28;9.80;99.90
8475;DHT22;4274;52.012;8.448;2023-03-21T07:52:53;9.80;99.90
8475;DHT22;4274;52.012;8.448;2023-03-21T07:55:19;9.80;99.90
8475;DHT22;4274;52.012;8.448;2023-03-21T07:57:47;9.80;99.90
8475;DHT22;4274;52.012;8.448;2023-03-21T08:00:14;9.80;99.90
8475;DHT22;4274;52.012;8.448;2023-03-21T08:02:48;9.80;99.90
8475;DHT22;4274;52.012;8.448;2023-03-21T08:05:14;9.80;99.90
8475;DHT22;4274;52.012;8.448;2023-03-21T08:07:39;9.80;99.90
8475;DHT22;4274;52.012;8.448;2023-03-21T08:10:06;9.90;99.90
8475;DHT22;4274;52.012;8.448;2023-03-21T08:12:31;9.80;99.90
8475;DHT22;4274;52.012;8.448;2023-03-21T08:14:57;9.70;99.90
8475;DHT22;4274;52.012;8.448;2023-03-21T08:17:23;9.70;99.90
8475;DHT22;4274;52.012;8.448;2023-03-21T08:19:48;9.70;99.90
8475;DHT22;4274;52.012;8.448;2023-03-21T08:22:14;9.60;99.90
8475;DHT22;4274;52.012;8.448;2023-03-21T08:24:39;9.60;99.90
8475;DHT22;4274;52.012;8.448;2023-03-21T08:27:05;9.50;99.90
8475;DHT22;4274;52.012;8.448;2023-03-21T08:29:31;9.50;99.90
8475;DHT22;4274;52.012;8.448;2023-03-21T08:31:56;9.50;99.90
8475;DHT22;4274;52.012;8.448;2023-03-21T08:34:22;9.50;99.90
8475;DHT22;4274;52.012;8.448;2023-03-21T08:36:48;9.40;99.90
8475;DHT22;4274;52.012;8.448;2023-03-21T08:39:13;9.50;99.90
8475;DHT22;4274;52.012;8.448;2023-03-21T08:41:39;9.40;99.90
8475;DHT22;4274;52.012;8.448;2023-03-21T08:44:05;9.40;99.90
8475;DHT22;4274;52.012;8.448;2023-03-21T08:46:33;9.40;99.90
8475;DHT22;4274;52.012;8.448;2023-03-21T08:48:59;9.40;99.90
8475;DHT22;4274;52.012;8.448;2023-03-21T08:51:24;9.40;99.90
8475;DHT22;4274;52.012;8.448;2023-03-21T08:53:50;9.40;99.90
8475;DHT22;4274;52.012;8.448;2023-03-21T08:56:16;9.40;99.90
8475;DHT22;4274;52.012;8.448;2023-03-21T08:58:41;9.40;99.90
8475;DHT22;4274;52.012;8.448;2023-03-21T09:01:07;9.40;99.90
8475;DHT22;4274;52.012;8.448;2023-03-21T09:03:36;9.30;99.90
8475;DHT22;4274;52.012;8.448;2023-03-21T09:06:02;9.30;99.90
8475;DHT22;4274;52.012;8.448;2023-03-21T09:08:28;9.30;99.90
8475;DHT22;4274;52.012;8.448;2023-03-21T09:10:54;9.30;99.90
8475;DHT22;4274;52.012;8.448;2023-03-21T09:13:20;9.30;99.90
8475;DHT22;4274;52.012;8.448;2023-03-21T09:15:46;9.20;99.90
8475;DHT22;4274;52.012;8.448;2023-03-21T09:18:13;9.20;99.90
8475;DHT22;4274;52.012;8.448;2023-03-21T09:20:43;9.20;99.90
8475;DHT22;4274;52.012;8.448;2023-03-21T09:23:12;9.20;99.90
8475;DHT22;4274;52.012;8.448;2023-03-21T09:25:43;9.20;99.90
8475;DHT22;4274;52.012;8.448;2023-03-21T09:28:09;9.30;99.90
8475;DHT22;4274;52.012;8.448;2023-03-21T09:30:35;9.30;99.90
8475;DHT22;4274;52.012;8.448;2023-03-21T09:33:03;9.40;99.90
8475;DHT22;4274;52.012;8.448;2023-03-21T09:35:31;9.40;99.90
8475;DHT22;4274;52.012;8.448;2023-03-21T09:37:57;9.40;99.90
8475;DHT22;4274;52.012;8.448;2023-03-21T09:40:46;9.40;99.90
8475;DHT22;4274;52.012;8.448;2023-03-21T09:43:23;9.40;99.90
8475;DHT22;4274;52.012;8.448;2023-03-21T09:46:11;9.50;99.90
8475;DHT22;4274;52.012;8.448;2023-03-21T09:51:13;9.50;99.90
8475;DHT22;4274;52.012;8.448;2023-03-21T09:53:45;9.50;99.90
8475;DHT22;4274;52.012;8.448;2023-03-21T09:56:12;9.50;99.90
8475;DHT22;4274;52.012;8.448;2023-03-21T09:58:45;9.40;99.90
8475;DHT22;4274;52.012;8.448;2023-03-21T10:01:17;9.40;99.90
8475;DHT22;4274;52.012;8.448;2023-03-21T10:04:01;9.50;99.90
8475;DHT22;4274;52.012;8.448;2023-03-21T10:06:28;9.50;99.90
8475;DHT22;4274;52.012;8.448;2023-03-21T10:09:00;9.60;99.90
8475;DHT22;4274;52.012;8.448;2023-03-21T10:16:50;9.70;99.90
8475;DHT22;4274;52.012;8.448;2023-03-21T10:19:18;9.80;99.90
8475;DHT22;4274;52.012;8.448;2023-03-21T10:21:48;9.80;99.90
8475;DHT22;4274;52.012;8.448;2023-03-21T10:24:23;9.90;99.90
8475;DHT22;4274;52.012;8.448;2023-03-21T10:26:52;10.00;99.90
8475;DHT22;4274;52.012;8.448;2023-03-21T10:29:21;10.00;99.90
8475;DHT22;4274;52.012;8.448;2023-03-21T10:31:47;10.00;99.90
8475;DHT22;4274;52.012;8.448;2023-03-21T10:34:23;10.00;99.90
8475;DHT22;4274;52.012;8.448;2023-03-21T10:36:51;10.10;99.90
8475;DHT22;4274;52.012;8.448;2023-03-21T10:41:50;10.30;99.90
8475;DHT22;4274;52.012;8.448;2023-03-21T10:44:17;10.30;99.90
8475;DHT22;4274;52.012;8.448;2023-03-21T10:46:54;10.40;99.90
8475;DHT22;4274;52.012;8.448;2023-03-21T10:49:20;10.50;99.90
8475;DHT22;4274;52.012;8.448;2023-03-21T10:51:48;10.50;99.90
8475;DHT22;4274;52.012;8.448;2023-03-21T10:54:19;10.50;99.90
8475;DHT22;4274;52.012;8.448;2023-03-21T10:57:05;10.50;99.90
8475;DHT22;4274;52.012;8.448;2023-03-21T10:59:44;10.60;99.90
8475;DHT22;4274;52.012;8.448;2023-03-21T11:02:23;10.60;99.90
8475;DHT22;4274;52.012;8.448;2023-03-21T11:04:50;10.60;99.90
8475;DHT22;4274;52.012;8.448;2023-03-21T11:07:17;10.50;99.90
8475;DHT22;4274;52.012;8.448;2023-03-21T11:09:58;10.50;99.90
8475;DHT22;4274;52.012;8.448;2023-03-21T11:12:36;10.40;99.90
8475;DHT22;4274;52.012;8.448;2023-03-21T11:17:49;10.30;99.90
8475;DHT22;4274;52.012;8.448;2023-03-21T11:20:17;10.20;99.90
8475;DHT22;4274;52.012;8.448;2023-03-21T11:22:46;10.10;99.90
8475;DHT22;4274;52.012;8.448;2023-03-21T11:25:42;10.10;99.90
8475;DHT22;4274;52.012;8.448;2023-03-21T11:28:12;10.10;99.90
8475;DHT22;4274;52.012;8.448;2023-03-21T11:30:49;10.20;99.90
8475;DHT22;4274;52.012;8.448;2023-03-21T11:33:18;10.30;99.90
8475;DHT22;4274;52.012;8.448;2023-03-21T11:36:00;10.30;99.90
8475;DHT22;4274;52.012;8.448;2023-03-21T11:38:30;10.30;99.90
8475;DHT22;4274;52.012;8.448;2023-03-21T11:41:01;10.40;99.90
8475;DHT22;4274;52.012;8.448;2023-03-21T11:43:36;10.40;99.90
8475;DHT22;4274;52.012;8.448;2023-03-21T11:46:08;10.40;99.90
8475;DHT22;4274;52.012;8.448;2023-03-21T11:48:45;10.40;99.90
8475;DHT22;4274;52.012;8.448;2023-03-21T11:51:40;10.30;99.90
8475;DHT22;4274;52.012;8.448;2023-03-21T12:00:16;10.20;99.90
8475;DHT22;4274;52.012;8.448;2023-03-21T12:05:47;10.20;99.90
8475;DHT22;4274;52.012;8.448;2023-03-21T12:14:01;10.20;99.90
8475;DHT22;4274;52.012;8.448;2023-03-21T12:24:57;10.30;99.90
8475;DHT22;4274;52.012;8.448;2023-03-21T12:30:38;10.30;99.90
8475;DHT22;4274;52.012;8.448;2023-03-21T12:36:09;10.30;99.90
8475;DHT22;4274;52.012;8.448;2023-03-21T12:41:23;10.30;99.90
8475;DHT22;4274;52.012;8.448;2023-03-21T12:43:59;10.40;99.90
8475;DHT22;4274;52.012;8.448;2023-03-21T12:46:32;10.40;99.90
8475;DHT22;4274;52.012;8.448;2023-03-21T12:49:09;10.50;99.90
8475;DHT22;4274;52.012;8.448;2023-03-21T12:51:42;10.60;99.90
8475;DHT22;4274;52.012;8.448;2023-03-21T13:05:13;10.80;99.90
8475;DHT22;4274;52.012;8.448;2023-03-21T13:07:36;10.80;99.90
8475;DHT22;4274;52.012;8.448;2023-03-21T13:10:11;10.80;99.90
8475;DHT22;4274;52.012;8.448;2023-03-21T13:15:50;10.70;99.90
8475;DHT22;4274;52.012;8.448;2023-03-21T13:18:41;10.80;99.90
8475;DHT22;4274;52.012;8.448;2023-03-21T13:21:37;11.00;99.90
8475;DHT22;4274;52.012;8.448;2023-03-21T13:24:56;11.20;99.90
8475;DHT22;4274;52.012;8.448;2023-03-21T13:27:30;11.30;99.90
8475;DHT22;4274;52.012;8.448;2023-03-21T13:30:00;11.50;99.90
8475;DHT22;4274;52.012;8.448;2023-03-21T13:32:36;11.70;99.90
8475;DHT22;4274;52.012;8.448;2023-03-21T13:37:41;11.70;99.90
8475;DHT22;4274;52.012;8.448;2023-03-21T13:42:54;11.90;99.90
8475;DHT22;4274;52.012;8.448;2023-03-21T13:46:07;12.10;99.90
8475;DHT22;4274;52.012;8.448;2023-03-21T13:48:32;12.10;99.90
8475;DHT22;4274;52.012;8.448;2023-03-21T13:51:06;12.10;99.90
8475;DHT22;4274;52.012;8.448;2023-03-21T13:53:36;12.00;99.90
8475;DHT22;4274;52.012;8.448;2023-03-21T13:56:07;12.00;99.90
8475;DHT22;4274;52.012;8.448;2023-03-21T14:04:18;11.80;99.90
8475;DHT22;4274;52.012;8.448;2023-03-21T14:09:19;11.80;99.90
8475;DHT22;4274;52.012;8.448;2023-03-21T14:11:46;11.90;99.90
8475;DHT22;4274;52.012;8.448;2023-03-21T14:14:13;12.00;99.90
8475;DHT22;4274;52.012;8.448;2023-03-21T14:16:40;12.10;99.90
8475;DHT22;4274;52.012;8.448;2023-03-21T14:19:06;12.10;99.90
8475;DHT22;4274;52.012;8.448;2023-03-21T14:21:34;12.10;99.90
8475;DHT22;4274;52.012;8.448;2023-03-21T14:24:02;12.10;99.90
8475;DHT22;4274;52.012;8.448;2023-03-21T14:26:34;12.10;99.90
8475;DHT22;4274;52.012;8.448;2023-03-21T14:29:05;12.00;99.90
8475;DHT22;4274;52.012;8.448;2023-03-21T14:31:32;12.00;99.90
8475;DHT22;4274;52.012;8.448;2023-03-21T14:33:58;12.00;99.90
8475;DHT22;4274;52.012;8.448;2023-03-21T14:36:28;11.90;99.90
8475;DHT22;4274;52.012;8.448;2023-03-21T14:39:05;11.80;99.90
8475;DHT22;4274;52.012;8.448;2023-03-21T14:41:33;11.80;99.90
8475;DHT22;4274;52.012;8.448;2023-03-21T14:44:21;11.80;99.90
8475;DHT22;4274;52.012;8.448;2023-03-21T14:47:04;11.70;99.90
8475;DHT22;4274;52.012;8.448;2023-03-21T14:49:35;11.70;99.90
8475;DHT22;4274;52.012;8.448;2023-03-21T14:52:08;11.60;99.90
8475;DHT22;4274;52.012;8.448;2023-03-21T14:54:35;11.50;99.90
8475;DHT22;4274;52.012;8.448;2023-03-21T14:57:07;11.50;99.90
8475;DHT22;4274;52.012;8.448;2023-03-21T14:59:37;11.50;99.90
8475;DHT22;4274;52.012;8.448;2023-03-21T15:02:39;11.50;99.90
8475;DHT22;4274;52.012;8.448;2023-03-21T15:05:04;11.40;99.90
8475;DHT22;4274;52.012;8.448;2023-03-21T15:07:32;11.40;99.90
8475;DHT22;4274;52.012;8.448;2023-03-21T15:10:01;11.40;99.90
8475;DHT22;4274;52.012;8.448;2023-03-21T15:12:30;11.40;99.90
8475;DHT22;4274;52.012;8.448;2023-03-21T15:14:57;11.40;99.90
8475;DHT22;4274;52.012;8.448;2023-03-21T15:17:23;11.40;99.90
8475;DHT22;4274;52.012;8.448;2023-03-21T15:19:50;11.50;99.90
8475;DHT22;4274;52.012;8.448;2023-03-21T15:22:29;11.50;99.90
8475;DHT22;4274;52.012;8.448;2023-03-21T15:25:00;11.50;99.90
8475;DHT22;4274;52.012;8.448;2023-03-21T15:27:28;11.50;99.90
8475;DHT22;4274;52.012;8.448;2023-03-21T15:29:55;11.50;99.90
8475;DHT22;4274;52.012;8.448;2023-03-21T15:32:26;11.50;99.90
8475;DHT22;4274;52.012;8.448;2023-03-21T15:35:07;11.50;99.90
8475;DHT22;4274;52.012;8.448;2023-03-21T15:37:37;11.40;99.90
8475;DHT22;4274;52.012;8.448;2023-03-21T15:40:19;11.40;99.90
8475;DHT22;4274;52.012;8.448;2023-03-21T15:42:45;11.40;99.90
8475;DHT22;4274;52.012;8.448;2023-03-21T15:45:21;11.30;99.90
8475;DHT22;4274;52.012;8.448;2023-03-21T15:50:28;11.30;99.90
8475;DHT22;4274;52.012;8.448;2023-03-21T15:52:58;11.20;99.90
8475;DHT22;4274;52.012;8.448;2023-03-21T15:55:52;11.20;99.90
8475;DHT22;4274;52.012;8.448;2023-03-21T15:58:23;11.20;99.90
8475;DHT22;4274;52.012;8.448;2023-03-21T16:01:19;11.10;99.90
8475;DHT22;4274;52.012;8.448;2023-03-21T16:03:47;11.10;99.90
8475;DHT22;4274;52.012;8.448;2023-03-21T16:08:45;10.90;99.90
8475;DHT22;4274;52.012;8.448;2023-03-21T16:11:23;10.90;99.90
8475;DHT22;4274;52.012;8.448;2023-03-21T16:13:50;10.90;99.90
8475;DHT22;4274;52.012;8.448;2023-03-21T16:16:18;10.80;99.90
8475;DHT22;4274;52.012;8.448;2023-03-21T16:18:44;10.80;99.90
8475;DHT22;4274;52.012;8.448;2023-03-21T16:21:15;10.70;99.90
8475;DHT22;4274;52.012;8.448;2023-03-21T16:23:41;10.70;99.90
8475;DHT22;4274;52.012;8.448;2023-03-21T16:26:12;10.70;99.90
8475;DHT22;4274;52.012;8.448;2023-03-21T16:28:38;10.70;99.90
8475;DHT22;4274;52.012;8.448;2023-03-21T16:31:04;10.70;99.90
8475;DHT22;4274;52.012;8.448;2023-03-21T16:33:29;10.70;99.90
8475;DHT22;4274;52.012;8.448;2023-03-21T16:35:55;10.70;99.90
8475;DHT22;4274;52.012;8.448;2023-03-21T16:38:22;10.70;99.90
8475;DHT22;4274;52.012;8.448;2023-03-21T16:40:48;10.70;99.90
8475;DHT22;4274;52.012;8.448;2023-03-21T16:43:15;10.70;99.90
8475;DHT22;4274;52.012;8.448;2023-03-21T16:45:40;10.80;99.90
8475;DHT22;4274;52.012;8.448;2023-03-21T16:48:06;10.80;99.90
8475;DHT22;4274;52.012;8.448;2023-03-21T16:50:39;10.70;99.90
8475;DHT22;4274;52.012;8.448;2023-03-21T16:53:06;10.80;99.90
8475;DHT22;4274;52.012;8.448;2023-03-21T16:55:32;10.80;99.90
8475;DHT22;4274;52.012;8.448;2023-03-21T16:57:59;10.80;99.90
8475;DHT22;4274;52.012;8.448;2023-03-21T17:00:27;10.80;99.90
8475;DHT22;4274;52.012;8.448;2023-03-21T17:02:54;10.70;99.90
8475;DHT22;4274;52.012;8.448;2023-03-21T17:05:22;10.70;99.90
8475;DHT22;4274;52.012;8.448;2023-03-21T17:07:47;10.60;99.90
8475;DHT22;4274;52.012;8.448;2023-03-21T17:10:15;10.50;99.90
8475;DHT22;4274;52.012;8.448;2023-03-21T17:12:40;10.50;99.90
8475;DHT22;4274;52.012;8.448;2023-03-21T17:15:07;10.40;99.90
8475;DHT22;4274;52.012;8.448;2023-03-21T17:17:32;10.40;99.90
8475;DHT22;4274;52.012;8.448;2023-03-21T17:19:58;10.40;99.90
8475;DHT22;4274;52.012;8.448;2023-03-21T17:22:23;10.40;99.90
8475;DHT22;4274;52.012;8.448;2023-03-21T17:24:49;10.40;99.90
8475;DHT22;4274;52.012;8.448;2023-03-21T17:27:15;10.40;99.90
8475;DHT22;4274;52.012;8.448;2023-03-21T17:29:43;10.30;99.90
8475;DHT22;4274;52.012;8.448;2023-03-21T17:32:08;10.30;99.90
8475;DHT22;4274;52.012;8.448;2023-03-21T17:34:34;10.30;99.90
8475;DHT22;4274;52.012;8.448;2023-03-21T17:37:00;10.30;99.90
8475;DHT22;4274;52.012;8.448;2023-03-21T17:39:26;10.30;99.90
8475;DHT22;4274;52.012;8.448;2023-03-21T17:41:53;10.20;99.90
8475;DHT22;4274;52.012;8.448;2023-03-21T17:44:19;10.10;99.90
8475;DHT22;4274;52.012;8.448;2023-03-21T17:46:45;10.10;99.90
8475;DHT22;4274;52.012;8.448;2023-03-21T17:49:13;10.10;99.90
8475;DHT22;4274;52.012;8.448;2023-03-21T17:51:39;10.00;99.90
8475;DHT22;4274;52.012;8.448;2023-03-21T17:54:05;10.00;99.90
8475;DHT22;4274;52.012;8.448;2023-03-21T17:56:32;10.00;99.90
8475;DHT22;4274;52.012;8.448;2023-03-21T17:59:00;9.90;99.90
8475;DHT22;4274;52.012;8.448;2023-03-21T18:01:27;9.90;99.90
8475;DHT22;4274;52.012;8.448;2023-03-21T18:03:55;9.90;99.90
8475;DHT22;4274;52.012;8.448;2023-03-21T18:06:23;9.90;99.90
8475;DHT22;4274;52.012;8.448;2023-03-21T18:08:50;9.90;99.90
8475;DHT22;4274;52.012;8.448;2023-03-21T18:11:18;9.90;99.90
8475;DHT22;4274;52.012;8.448;2023-03-21T18:13:44;9.90;99.90
8475;DHT22;4274;52.012;8.448;2023-03-21T18:16:16;9.90;99.90